Terminal Aerodrome Forecast
Issued by NWS

Home | Current Version | Previous Version | Graphics & Text | Print | Product List | Glossary On
Versions: 1 2 3 4 5 6 7 8 9 10 11 12
000
FTUS43 KIWX 081100
TAFSBN
TAF
KSBN 081120Z 0812/0912 22010KT 6SM -SHRA BR VCTS SCT015CB BKN035
      TEMPO 0812/0814 4SM -TSRA BR BKN015CB
     FM081400 24012G18KT 6SM -SHRA BR BKN035
     FM081600 28013G18KT P6SM BKN035
     FM090000 27005KT P6SM BKN040=

USA.gov is the U.S. government's official web portal to all federal, state and local government web resources and services.